sensor_id;sensor_type;location;lat;lon;timestamp;P1;durP1;ratioP1;P2;durP2;ratioP2
8596;SDS011;4336;49.310;8.646;2024-03-23T00:54:01;14.30;;;11.03;;
8596;SDS011;4336;49.310;8.646;2024-03-23T00:56:28;15.00;;;12.60;;
8596;SDS011;4336;49.310;8.646;2024-03-23T00:58:55;14.30;;;12.13;;
8596;SDS011;4336;49.310;8.646;2024-03-23T01:01:21;13.73;;;12.37;;
8596;SDS011;4336;49.310;8.646;2024-03-23T01:03:47;15.17;;;12.73;;
8596;SDS011;4336;49.310;8.646;2024-03-23T01:06:13;14.37;;;12.97;;
8596;SDS011;4336;49.310;8.646;2024-03-23T01:08:39;15.40;;;13.07;;
8596;SDS011;4336;49.310;8.646;2024-03-23T01:11:05;13.70;;;12.30;;
8596;SDS011;4336;49.310;8.646;2024-03-23T01:13:31;15.87;;;13.93;;
8596;SDS011;4336;49.310;8.646;2024-03-23T01:15:57;15.17;;;13.67;;
8596;SDS011;4336;49.310;8.646;2024-03-23T01:18:23;15.83;;;13.47;;
8596;SDS011;4336;49.310;8.646;2024-03-23T01:20:51;15.47;;;13.83;;
8596;SDS011;4336;49.310;8.646;2024-03-23T01:23:17;14.87;;;12.40;;
8596;SDS011;4336;49.310;8.646;2024-03-23T01:25:44;18.33;;;13.50;;
8596;SDS011;4336;49.310;8.646;2024-03-23T01:28:17;16.37;;;13.40;;
8596;SDS011;4336;49.310;8.646;2024-03-23T01:30:43;13.90;;;12.50;;
8596;SDS011;4336;49.310;8.646;2024-03-23T01:33:09;14.67;;;12.03;;
8596;SDS011;4336;49.310;8.646;2024-03-23T01:35:35;13.53;;;11.73;;
8596;SDS011;4336;49.310;8.646;2024-03-23T01:38:01;14.33;;;12.03;;
8596;SDS011;4336;49.310;8.646;2024-03-23T01:40:27;15.47;;;12.70;;
8596;SDS011;4336;49.310;8.646;2024-03-23T01:43:04;15.80;;;12.60;;
8596;SDS011;4336;49.310;8.646;2024-03-23T01:45:31;15.87;;;12.30;;
8596;SDS011;4336;49.310;8.646;2024-03-23T01:47:58;16.13;;;12.70;;
8596;SDS011;4336;49.310;8.646;2024-03-23T01:50:24;13.27;;;12.03;;
8596;SDS011;4336;49.310;8.646;2024-03-23T01:52:50;14.33;;;12.13;;
8596;SDS011;4336;49.310;8.646;2024-03-23T01:55:16;12.87;;;10.90;;
8596;SDS011;4336;49.310;8.646;2024-03-23T01:57:43;13.60;;;12.20;;
8596;SDS011;4336;49.310;8.646;2024-03-23T02:00:09;14.17;;;11.63;;
8596;SDS011;4336;49.310;8.646;2024-03-23T02:02:46;14.00;;;12.53;;
8596;SDS011;4336;49.310;8.646;2024-03-23T02:05:12;12.93;;;11.10;;
8596;SDS011;4336;49.310;8.646;2024-03-23T02:07:39;13.90;;;11.50;;
8596;SDS011;4336;49.310;8.646;2024-03-23T02:10:09;11.97;;;10.40;;
8596;SDS011;4336;49.310;8.646;2024-03-23T02:12:36;10.63;;;9.70;;
8596;SDS011;4336;49.310;8.646;2024-03-23T02:15:02;13.53;;;11.23;;
8596;SDS011;4336;49.310;8.646;2024-03-23T02:17:29;12.03;;;10.87;;
8596;SDS011;4336;49.310;8.646;2024-03-23T02:19:56;11.77;;;10.60;;
8596;SDS011;4336;49.310;8.646;2024-03-23T02:22:22;14.43;;;11.37;;
8596;SDS011;4336;49.310;8.646;2024-03-23T02:24:48;15.87;;;10.93;;
8596;SDS011;4336;49.310;8.646;2024-03-23T02:27:14;11.37;;;10.37;;
8596;SDS011;4336;49.310;8.646;2024-03-23T02:29:40;12.27;;;10.93;;
8596;SDS011;4336;49.310;8.646;2024-03-23T02:32:07;12.17;;;10.97;;
8596;SDS011;4336;49.310;8.646;2024-03-23T02:34:34;12.80;;;10.67;;
8596;SDS011;4336;49.310;8.646;2024-03-23T02:37:01;12.80;;;10.90;;
8596;SDS011;4336;49.310;8.646;2024-03-23T02:39:27;13.90;;;10.53;;
8596;SDS011;4336;49.310;8.646;2024-03-23T02:41:53;11.80;;;10.70;;
8596;SDS011;4336;49.310;8.646;2024-03-23T02:44:19;10.60;;;8.70;;
8596;SDS011;4336;49.310;8.646;2024-03-23T02:46:45;12.37;;;10.47;;
8596;SDS011;4336;49.310;8.646;2024-03-23T02:49:12;13.20;;;11.10;;
8596;SDS011;4336;49.310;8.646;2024-03-23T02:51:38;12.33;;;9.77;;
8596;SDS011;4336;49.310;8.646;2024-03-23T02:54:06;14.23;;;10.70;;
8596;SDS011;4336;49.310;8.646;2024-03-23T02:56:32;13.47;;;10.73;;
8596;SDS011;4336;49.310;8.646;2024-03-23T02:58:58;12.37;;;11.07;;
8596;SDS011;4336;49.310;8.646;2024-03-23T03:01:24;12.10;;;10.07;;
8596;SDS011;4336;49.310;8.646;2024-03-23T03:03:51;12.57;;;11.27;;
8596;SDS011;4336;49.310;8.646;2024-03-23T03:06:26;13.47;;;10.97;;
8596;SDS011;4336;49.310;8.646;2024-03-23T03:08:52;14.07;;;10.40;;
8596;SDS011;4336;49.310;8.646;2024-03-23T03:11:19;14.63;;;11.40;;
8596;SDS011;4336;49.310;8.646;2024-03-23T03:13:45;14.80;;;11.13;;
8596;SDS011;4336;49.310;8.646;2024-03-23T03:16:11;12.17;;;10.93;;
8596;SDS011;4336;49.310;8.646;2024-03-23T03:18:38;12.53;;;11.23;;
8596;SDS011;4336;49.310;8.646;2024-03-23T03:21:05;12.77;;;11.47;;
8596;SDS011;4336;49.310;8.646;2024-03-23T03:23:39;13.60;;;11.40;;
8596;SDS011;4336;49.310;8.646;2024-03-23T03:26:05;14.83;;;11.73;;
8596;SDS011;4336;49.310;8.646;2024-03-23T03:28:32;17.77;;;16.03;;
8596;SDS011;4336;49.310;8.646;2024-03-23T03:30:59;28.23;;;25.17;;
8596;SDS011;4336;49.310;8.646;2024-03-23T03:33:26;17.37;;;14.90;;
8596;SDS011;4336;49.310;8.646;2024-03-23T03:35:52;13.73;;;11.87;;
8596;SDS011;4336;49.310;8.646;2024-03-23T03:38:18;13.50;;;12.13;;
8596;SDS011;4336;49.310;8.646;2024-03-23T03:40:45;17.87;;;12.33;;
8596;SDS011;4336;49.310;8.646;2024-03-23T03:43:11;13.57;;;11.40;;
8596;SDS011;4336;49.310;8.646;2024-03-23T03:45:37;17.47;;;11.63;;
8596;SDS011;4336;49.310;8.646;2024-03-23T03:48:03;15.87;;;12.70;;
8596;SDS011;4336;49.310;8.646;2024-03-23T03:50:29;15.90;;;14.40;;
8596;SDS011;4336;49.310;8.646;2024-03-23T03:52:55;16.30;;;14.60;;
8596;SDS011;4336;49.310;8.646;2024-03-23T03:55:22;16.00;;;14.30;;
8596;SDS011;4336;49.310;8.646;2024-03-23T03:57:48;15.10;;;13.43;;
8596;SDS011;4336;49.310;8.646;2024-03-23T04:00:14;15.30;;;13.77;;
8596;SDS011;4336;49.310;8.646;2024-03-23T04:02:41;22.23;;;19.93;;
8596;SDS011;4336;49.310;8.646;2024-03-23T04:05:07;17.90;;;15.53;;
8596;SDS011;4336;49.310;8.646;2024-03-23T04:07:33;18.07;;;15.20;;
8596;SDS011;4336;49.310;8.646;2024-03-23T04:09:59;16.27;;;14.57;;
8596;SDS011;4336;49.310;8.646;2024-03-23T04:12:25;15.97;;;14.27;;
8596;SDS011;4336;49.310;8.646;2024-03-23T04:14:51;20.57;;;16.30;;
8596;SDS011;4336;49.310;8.646;2024-03-23T04:17:18;19.17;;;17.27;;
8596;SDS011;4336;49.310;8.646;2024-03-23T04:19:44;20.00;;;16.73;;
8596;SDS011;4336;49.310;8.646;2024-03-23T04:22:10;19.70;;;17.67;;
8596;SDS011;4336;49.310;8.646;2024-03-23T04:24:37;20.53;;;17.00;;
8596;SDS011;4336;49.310;8.646;2024-03-23T04:27:03;19.80;;;17.73;;
8596;SDS011;4336;49.310;8.646;2024-03-23T04:29:29;19.80;;;17.83;;
8596;SDS011;4336;49.310;8.646;2024-03-23T04:31:55;20.97;;;17.43;;
8596;SDS011;4336;49.310;8.646;2024-03-23T04:34:21;19.70;;;16.87;;
8596;SDS011;4336;49.310;8.646;2024-03-23T04:36:48;20.87;;;17.73;;
8596;SDS011;4336;49.310;8.646;2024-03-23T04:39:14;20.10;;;16.97;;
8596;SDS011;4336;49.310;8.646;2024-03-23T04:41:40;21.80;;;17.70;;
8596;SDS011;4336;49.310;8.646;2024-03-23T04:44:07;21.93;;;17.90;;
8596;SDS011;4336;49.310;8.646;2024-03-23T04:46:33;20.60;;;17.20;;
8596;SDS011;4336;49.310;8.646;2024-03-23T04:48:59;18.27;;;16.43;;
8596;SDS011;4336;49.310;8.646;2024-03-23T04:51:25;18.37;;;15.97;;
8596;SDS011;4336;49.310;8.646;2024-03-23T04:53:51;17.60;;;15.80;;
8596;SDS011;4336;49.310;8.646;2024-03-23T04:56:17;18.10;;;15.97;;
8596;SDS011;4336;49.310;8.646;2024-03-23T04:58:44;19.13;;;14.77;;
8596;SDS011;4336;49.310;8.646;2024-03-23T05:01:10;18.13;;;15.57;;
8596;SDS011;4336;49.310;8.646;2024-03-23T05:03:37;17.03;;;14.50;;
8596;SDS011;4336;49.310;8.646;2024-03-23T05:06:03;15.23;;;13.80;;
8596;SDS011;4336;49.310;8.646;2024-03-23T05:08:30;14.93;;;13.40;;
8596;SDS011;4336;49.310;8.646;2024-03-23T05:10:56;16.07;;;14.47;;
8596;SDS011;4336;49.310;8.646;2024-03-23T05:13:22;14.23;;;12.77;;
8596;SDS011;4336;49.310;8.646;2024-03-23T05:15:52;14.73;;;13.23;;
8596;SDS011;4336;49.310;8.646;2024-03-23T05:18:19;15.23;;;13.83;;
8596;SDS011;4336;49.310;8.646;2024-03-23T05:20:45;13.57;;;12.37;;
8596;SDS011;4336;49.310;8.646;2024-03-23T05:23:11;13.10;;;11.80;;
8596;SDS011;4336;49.310;8.646;2024-03-23T05:25:37;19.40;;;13.13;;
8596;SDS011;4336;49.310;8.646;2024-03-23T05:28:04;12.87;;;11.63;;
8596;SDS011;4336;49.310;8.646;2024-03-23T05:30:30;12.27;;;11.13;;
8596;SDS011;4336;49.310;8.646;2024-03-23T05:32:56;12.13;;;10.93;;
8596;SDS011;4336;49.310;8.646;2024-03-23T05:35:22;11.60;;;10.43;;
8596;SDS011;4336;49.310;8.646;2024-03-23T05:37:49;10.73;;;9.77;;
8596;SDS011;4336;49.310;8.646;2024-03-23T05:40:15;10.87;;;9.63;;
8596;SDS011;4336;49.310;8.646;2024-03-23T05:42:41;9.97;;;9.07;;
8596;SDS011;4336;49.310;8.646;2024-03-23T05:45:07;8.70;;;7.80;;
8596;SDS011;4336;49.310;8.646;2024-03-23T05:47:34;9.73;;;8.83;;
8596;SDS011;4336;49.310;8.646;2024-03-23T05:50:00;9.67;;;8.87;;
8596;SDS011;4336;49.310;8.646;2024-03-23T05:52:27;10.47;;;8.50;;
8596;SDS011;4336;49.310;8.646;2024-03-23T05:54:53;9.03;;;8.33;;
8596;SDS011;4336;49.310;8.646;2024-03-23T05:57:19;8.13;;;7.43;;
8596;SDS011;4336;49.310;8.646;2024-03-23T05:59:45;6.27;;;5.87;;
8596;SDS011;4336;49.310;8.646;2024-03-23T06:02:11;8.37;;;7.67;;
8596;SDS011;4336;49.310;8.646;2024-03-23T06:04:38;7.70;;;7.10;;
8596;SDS011;4336;49.310;8.646;2024-03-23T06:07:04;9.20;;;8.27;;
8596;SDS011;4336;49.310;8.646;2024-03-23T06:09:32;5.30;;;4.83;;
8596;SDS011;4336;49.310;8.646;2024-03-23T06:11:58;5.50;;;5.10;;
8596;SDS011;4336;49.310;8.646;2024-03-23T06:14:23;5.30;;;4.90;;
8596;SDS011;4336;49.310;8.646;2024-03-23T06:16:49;4.13;;;3.83;;
8596;SDS011;4336;49.310;8.646;2024-03-23T06:19:15;5.30;;;4.80;;
8596;SDS011;4336;49.310;8.646;2024-03-23T06:21:44;5.97;;;5.57;;
8596;SDS011;4336;49.310;8.646;2024-03-23T06:24:11;6.03;;;5.57;;
8596;SDS011;4336;49.310;8.646;2024-03-23T06:26:37;6.60;;;6.10;;
8596;SDS011;4336;49.310;8.646;2024-03-23T06:29:02;4.90;;;4.60;;
8596;SDS011;4336;49.310;8.646;2024-03-23T06:31:28;5.97;;;5.57;;
8596;SDS011;4336;49.310;8.646;2024-03-23T06:33:55;5.73;;;5.33;;
8596;SDS011;4336;49.310;8.646;2024-03-23T06:36:21;5.27;;;4.87;;
8596;SDS011;4336;49.310;8.646;2024-03-23T06:38:47;5.70;;;5.30;;
8596;SDS011;4336;49.310;8.646;2024-03-23T06:41:12;6.33;;;5.83;;
8596;SDS011;4336;49.310;8.646;2024-03-23T06:43:38;5.50;;;5.10;;
8596;SDS011;4336;49.310;8.646;2024-03-23T06:46:05;6.90;;;6.40;;
8596;SDS011;4336;49.310;8.646;2024-03-23T06:48:30;6.40;;;6.00;;
8596;SDS011;4336;49.310;8.646;2024-03-23T06:50:57;6.30;;;5.77;;
8596;SDS011;4336;49.310;8.646;2024-03-23T06:53:23;6.00;;;5.60;;
8596;SDS011;4336;49.310;8.646;2024-03-23T06:55:52;6.30;;;5.80;;
8596;SDS011;4336;49.310;8.646;2024-03-23T06:58:19;7.90;;;7.30;;
8596;SDS011;4336;49.310;8.646;2024-03-23T07:00:46;7.63;;;7.10;;
8596;SDS011;4336;49.310;8.646;2024-03-23T07:03:12;7.40;;;6.90;;
8596;SDS011;4336;49.310;8.646;2024-03-23T07:05:38;7.53;;;7.00;;
8596;SDS011;4336;49.310;8.646;2024-03-23T07:08:05;7.37;;;6.87;;
8596;SDS011;4336;49.310;8.646;2024-03-23T07:10:31;6.93;;;6.43;;
8596;SDS011;4336;49.310;8.646;2024-03-23T07:13:00;7.40;;;6.90;;
8596;SDS011;4336;49.310;8.646;2024-03-23T07:15:26;7.10;;;6.50;;
8596;SDS011;4336;49.310;8.646;2024-03-23T07:17:52;8.03;;;7.43;;
8596;SDS011;4336;49.310;8.646;2024-03-23T07:20:18;7.60;;;7.07;;
8596;SDS011;4336;49.310;8.646;2024-03-23T07:22:45;7.13;;;6.63;;
8596;SDS011;4336;49.310;8.646;2024-03-23T07:25:12;7.10;;;6.60;;
8596;SDS011;4336;49.310;8.646;2024-03-23T07:27:38;6.20;;;5.80;;
8596;SDS011;4336;49.310;8.646;2024-03-23T07:30:05;6.23;;;5.83;;
8596;SDS011;4336;49.310;8.646;2024-03-23T07:32:32;6.13;;;5.73;;
8596;SDS011;4336;49.310;8.646;2024-03-23T07:34:57;4.70;;;4.40;;
8596;SDS011;4336;49.310;8.646;2024-03-23T07:37:23;4.03;;;3.73;;
8596;SDS011;4336;49.310;8.646;2024-03-23T07:39:49;5.53;;;5.10;;
8596;SDS011;4336;49.310;8.646;2024-03-23T07:42:15;6.20;;;5.70;;
8596;SDS011;4336;49.310;8.646;2024-03-23T07:44:40;6.03;;;5.63;;
8596;SDS011;4336;49.310;8.646;2024-03-23T07:47:07;7.37;;;6.77;;
8596;SDS011;4336;49.310;8.646;2024-03-23T07:49:33;7.20;;;6.53;;
8596;SDS011;4336;49.310;8.646;2024-03-23T07:51:59;9.03;;;7.20;;
8596;SDS011;4336;49.310;8.646;2024-03-23T07:54:25;9.57;;;8.57;;
8596;SDS011;4336;49.310;8.646;2024-03-23T07:56:53;8.43;;;7.40;;
8596;SDS011;4336;49.310;8.646;2024-03-23T07:59:19;6.93;;;6.33;;
8596;SDS011;4336;49.310;8.646;2024-03-23T08:01:46;7.20;;;6.50;;
8596;SDS011;4336;49.310;8.646;2024-03-23T08:04:12;9.20;;;7.67;;
8596;SDS011;4336;49.310;8.646;2024-03-23T08:06:38;10.67;;;6.87;;
8596;SDS011;4336;49.310;8.646;2024-03-23T08:09:04;8.60;;;5.90;;
8596;SDS011;4336;49.310;8.646;2024-03-23T08:11:30;9.37;;;7.10;;
8596;SDS011;4336;49.310;8.646;2024-03-23T08:13:57;7.63;;;6.90;;
8596;SDS011;4336;49.310;8.646;2024-03-23T08:16:23;17.57;;;7.53;;
8596;SDS011;4336;49.310;8.646;2024-03-23T08:18:53;8.30;;;7.50;;
8596;SDS011;4336;49.310;8.646;2024-03-23T08:21:22;7.93;;;7.03;;
8596;SDS011;4336;49.310;8.646;2024-03-23T08:23:48;9.57;;;7.80;;
8596;SDS011;4336;49.310;8.646;2024-03-23T08:26:15;9.67;;;8.20;;
8596;SDS011;4336;49.310;8.646;2024-03-23T08:28:43;10.17;;;8.13;;
8596;SDS011;4336;49.310;8.646;2024-03-23T08:31:12;13.20;;;11.87;;
8596;SDS011;4336;49.310;8.646;2024-03-23T08:33:39;10.60;;;7.97;;
8596;SDS011;4336;49.310;8.646;2024-03-23T08:36:08;11.63;;;9.90;;
8596;SDS011;4336;49.310;8.646;2024-03-23T08:38:37;10.80;;;7.33;;
8596;SDS011;4336;49.310;8.646;2024-03-23T08:41:04;9.60;;;8.57;;
8596;SDS011;4336;49.310;8.646;2024-03-23T08:43:38;11.43;;;8.30;;
8596;SDS011;4336;49.310;8.646;2024-03-23T08:46:11;10.80;;;8.47;;
8596;SDS011;4336;49.310;8.646;2024-03-23T08:48:38;10.03;;;7.50;;
8596;SDS011;4336;49.310;8.646;2024-03-23T08:51:05;9.07;;;5.97;;
8596;SDS011;4336;49.310;8.646;2024-03-23T08:53:33;9.87;;;7.57;;
8596;SDS011;4336;49.310;8.646;2024-03-23T08:55:59;11.97;;;8.27;;
8596;SDS011;4336;49.310;8.646;2024-03-23T08:58:26;9.57;;;7.23;;
8596;SDS011;4336;49.310;8.646;2024-03-23T09:00:53;8.33;;;7.50;;
8596;SDS011;4336;49.310;8.646;2024-03-23T09:03:23;11.67;;;8.40;;
8596;SDS011;4336;49.310;8.646;2024-03-23T09:05:49;10.43;;;7.83;;
8596;SDS011;4336;49.310;8.646;2024-03-23T09:08:16;9.70;;;7.07;;
8596;SDS011;4336;49.310;8.646;2024-03-23T09:10:42;9.77;;;7.83;;
8596;SDS011;4336;49.310;8.646;2024-03-23T09:13:09;8.00;;;5.57;;
8596;SDS011;4336;49.310;8.646;2024-03-23T09:15:35;11.60;;;8.80;;
8596;SDS011;4336;49.310;8.646;2024-03-23T09:18:02;17.93;;;16.03;;
8596;SDS011;4336;49.310;8.646;2024-03-23T09:20:28;10.23;;;8.40;;
8596;SDS011;4336;49.310;8.646;2024-03-23T09:22:54;9.40;;;8.37;;
8596;SDS011;4336;49.310;8.646;2024-03-23T09:25:20;10.83;;;9.73;;
8596;SDS011;4336;49.310;8.646;2024-03-23T09:27:46;15.90;;;12.50;;
8596;SDS011;4336;49.310;8.646;2024-03-23T09:30:13;12.13;;;8.80;;
8596;SDS011;4336;49.310;8.646;2024-03-23T09:32:41;10.53;;;9.47;;
8596;SDS011;4336;49.310;8.646;2024-03-23T09:35:08;9.60;;;7.87;;
8596;SDS011;4336;49.310;8.646;2024-03-23T09:37:34;12.53;;;8.50;;
8596;SDS011;4336;49.310;8.646;2024-03-23T09:40:00;10.90;;;9.70;;
8596;SDS011;4336;49.310;8.646;2024-03-23T09:42:26;14.73;;;8.77;;
8596;SDS011;4336;49.310;8.646;2024-03-23T09:44:52;13.37;;;9.43;;
8596;SDS011;4336;49.310;8.646;2024-03-23T09:47:18;7.10;;;5.93;;
8596;SDS011;4336;49.310;8.646;2024-03-23T09:49:44;16.00;;;6.07;;
8596;SDS011;4336;49.310;8.646;2024-03-23T09:52:10;11.30;;;6.87;;
8596;SDS011;4336;49.310;8.646;2024-03-23T09:54:36;12.53;;;7.87;;
8596;SDS011;4336;49.310;8.646;2024-03-23T09:57:02;11.23;;;7.07;;
8596;SDS011;4336;49.310;8.646;2024-03-23T09:59:29;11.43;;;7.03;;
8596;SDS011;4336;49.310;8.646;2024-03-23T10:01:55;12.17;;;8.43;;
8596;SDS011;4336;49.310;8.646;2024-03-23T10:04:40;12.17;;;7.73;;
8596;SDS011;4336;49.310;8.646;2024-03-23T10:07:19;10.83;;;7.90;;
8596;SDS011;4336;49.310;8.646;2024-03-23T10:09:46;13.23;;;7.90;;
8596;SDS011;4336;49.310;8.646;2024-03-23T10:12:14;9.13;;;7.13;;
8596;SDS011;4336;49.310;8.646;2024-03-23T10:14:40;11.90;;;9.77;;
8596;SDS011;4336;49.310;8.646;2024-03-23T10:17:11;15.67;;;9.23;;
8596;SDS011;4336;49.310;8.646;2024-03-23T10:19:39;14.23;;;10.17;;
8596;SDS011;4336;49.310;8.646;2024-03-23T10:22:06;12.10;;;8.87;;
8596;SDS011;4336;49.310;8.646;2024-03-23T10:24:32;13.33;;;9.60;;
8596;SDS011;4336;49.310;8.646;2024-03-23T10:26:58;11.50;;;8.83;;
8596;SDS011;4336;49.310;8.646;2024-03-23T10:29:25;16.53;;;9.60;;
8596;SDS011;4336;49.310;8.646;2024-03-23T10:31:53;14.17;;;10.17;;
8596;SDS011;4336;49.310;8.646;2024-03-23T10:34:25;15.60;;;9.63;;
8596;SDS011;4336;49.310;8.646;2024-03-23T10:36:53;11.87;;;8.77;;
8596;SDS011;4336;49.310;8.646;2024-03-23T10:39:20;21.70;;;9.43;;
8596;SDS011;4336;49.310;8.646;2024-03-23T10:41:48;13.90;;;10.30;;
8596;SDS011;4336;49.310;8.646;2024-03-23T10:44:16;14.43;;;10.83;;
8596;SDS011;4336;49.310;8.646;2024-03-23T10:46:43;13.60;;;9.70;;
8596;SDS011;4336;49.310;8.646;2024-03-23T10:49:11;16.17;;;10.47;;
8596;SDS011;4336;49.310;8.646;2024-03-23T10:51:37;17.67;;;10.60;;
8596;SDS011;4336;49.310;8.646;2024-03-23T10:54:04;17.70;;;9.63;;
8596;SDS011;4336;49.310;8.646;2024-03-23T10:56:31;14.60;;;10.40;;
8596;SDS011;4336;49.310;8.646;2024-03-23T10:59:00;13.13;;;9.90;;
8596;SDS011;4336;49.310;8.646;2024-03-23T11:01:28;17.33;;;10.13;;
8596;SDS011;4336;49.310;8.646;2024-03-23T11:03:54;14.40;;;8.67;;
8596;SDS011;4336;49.310;8.646;2024-03-23T11:06:34;17.20;;;8.00;;
8596;SDS011;4336;49.310;8.646;2024-03-23T11:09:01;13.87;;;8.80;;
8596;SDS011;4336;49.310;8.646;2024-03-23T11:11:27;12.67;;;8.50;;
8596;SDS011;4336;49.310;8.646;2024-03-23T11:14:02;15.20;;;8.73;;
8596;SDS011;4336;49.310;8.646;2024-03-23T11:16:38;11.87;;;8.07;;
8596;SDS011;4336;49.310;8.646;2024-03-23T11:21:53;10.47;;;6.70;;
8596;SDS011;4336;49.310;8.646;2024-03-23T11:24:20;11.93;;;7.03;;
8596;SDS011;4336;49.310;8.646;2024-03-23T11:26:47;12.53;;;8.53;;
8596;SDS011;4336;49.310;8.646;2024-03-23T11:29:14;10.53;;;7.17;;
8596;SDS011;4336;49.310;8.646;2024-03-23T11:34:13;13.57;;;8.13;;
8596;SDS011;4336;49.310;8.646;2024-03-23T11:36:40;11.00;;;8.17;;
8596;SDS011;4336;49.310;8.646;2024-03-23T11:39:17;17.97;;;10.17;;
8596;SDS011;4336;49.310;8.646;2024-03-23T11:41:50;11.50;;;8.57;;
8596;SDS011;4336;49.310;8.646;2024-03-23T11:44:20;17.97;;;8.70;;
8596;SDS011;4336;49.310;8.646;2024-03-23T11:46:47;12.37;;;8.60;;
8596;SDS011;4336;49.310;8.646;2024-03-23T11:49:26;12.97;;;8.37;;
8596;SDS011;4336;49.310;8.646;2024-03-23T11:51:54;10.37;;;8.40;;
8596;SDS011;4336;49.310;8.646;2024-03-23T11:54:21;10.57;;;8.47;;
8596;SDS011;4336;49.310;8.646;2024-03-23T11:56:57;10.97;;;7.13;;
8596;SDS011;4336;49.310;8.646;2024-03-23T11:59:37;13.27;;;7.50;;
8596;SDS011;4336;49.310;8.646;2024-03-23T12:04:33;9.40;;;7.27;;
8596;SDS011;4336;49.310;8.646;2024-03-23T12:07:19;9.30;;;8.07;;
8596;SDS011;4336;49.310;8.646;2024-03-23T12:10:05;14.13;;;10.50;;
8596;SDS011;4336;49.310;8.646;2024-03-23T12:12:31;8.33;;;6.20;;
8596;SDS011;4336;49.310;8.646;2024-03-23T12:15:01;7.03;;;5.77;;
8596;SDS011;4336;49.310;8.646;2024-03-23T12:17:31;11.37;;;7.00;;
8596;SDS011;4336;49.310;8.646;2024-03-23T12:19:57;8.40;;;7.60;;
8596;SDS011;4336;49.310;8.646;2024-03-23T12:22:24;14.33;;;7.37;;
8596;SDS011;4336;49.310;8.646;2024-03-23T12:24:50;9.00;;;8.10;;
8596;SDS011;4336;49.310;8.646;2024-03-23T12:27:16;9.50;;;7.70;;
8596;SDS011;4336;49.310;8.646;2024-03-23T12:29:43;8.40;;;7.53;;
8596;SDS011;4336;49.310;8.646;2024-03-23T12:32:11;11.53;;;8.30;;
8596;SDS011;4336;49.310;8.646;2024-03-23T12:34:37;8.80;;;7.47;;
8596;SDS011;4336;49.310;8.646;2024-03-23T12:37:04;12.70;;;9.17;;
8596;SDS011;4336;49.310;8.646;2024-03-23T12:39:31;16.73;;;8.03;;
8596;SDS011;4336;49.310;8.646;2024-03-23T12:41:57;12.87;;;9.30;;
8596;SDS011;4336;49.310;8.646;2024-03-23T12:44:24;10.47;;;9.27;;
8596;SDS011;4336;49.310;8.646;2024-03-23T12:46:50;12.63;;;8.40;;
8596;SDS011;4336;49.310;8.646;2024-03-23T12:49:16;9.03;;;7.87;;
8596;SDS011;4336;49.310;8.646;2024-03-23T12:51:46;8.27;;;7.57;;
8596;SDS011;4336;49.310;8.646;2024-03-23T12:54:13;10.67;;;6.23;;
8596;SDS011;4336;49.310;8.646;2024-03-23T12:56:39;8.63;;;7.63;;
8596;SDS011;4336;49.310;8.646;2024-03-23T12:59:06;8.20;;;7.10;;
8596;SDS011;4336;49.310;8.646;2024-03-23T13:01:32;9.60;;;6.97;;
8596;SDS011;4336;49.310;8.646;2024-03-23T13:03:58;9.37;;;7.43;;
8596;SDS011;4336;49.310;8.646;2024-03-23T13:06:27;11.90;;;8.57;;
8596;SDS011;4336;49.310;8.646;2024-03-23T13:08:57;8.13;;;7.33;;
8596;SDS011;4336;49.310;8.646;2024-03-23T13:11:23;11.03;;;7.73;;
8596;SDS011;4336;49.310;8.646;2024-03-23T13:13:49;12.13;;;7.50;;
8596;SDS011;4336;49.310;8.646;2024-03-23T13:16:16;11.87;;;6.37;;
8596;SDS011;4336;49.310;8.646;2024-03-23T13:18:42;7.60;;;7.00;;
8596;SDS011;4336;49.310;8.646;2024-03-23T13:21:08;7.00;;;6.40;;
8596;SDS011;4336;49.310;8.646;2024-03-23T13:23:34;7.47;;;6.77;;
8596;SDS011;4336;49.310;8.646;2024-03-23T13:26:03;7.90;;;7.20;;
8596;SDS011;4336;49.310;8.646;2024-03-23T13:28:29;7.17;;;6.43;;
8596;SDS011;4336;49.310;8.646;2024-03-23T13:30:56;9.90;;;8.30;;
8596;SDS011;4336;49.310;8.646;2024-03-23T13:33:23;8.37;;;7.50;;
8596;SDS011;4336;49.310;8.646;2024-03-23T13:35:50;7.07;;;6.47;;
8596;SDS011;4336;49.310;8.646;2024-03-23T13:38:16;8.70;;;7.90;;
8596;SDS011;4336;49.310;8.646;2024-03-23T13:41:16;7.10;;;6.47;;
8596;SDS011;4336;49.310;8.646;2024-03-23T13:43:37;7.73;;;7.13;;
8596;SDS011;4336;49.310;8.646;2024-03-23T13:46:03;7.47;;;6.77;;
8596;SDS011;4336;49.310;8.646;2024-03-23T13:48:29;6.80;;;6.17;;
8596;SDS011;4336;49.310;8.646;2024-03-23T13:50:59;7.43;;;6.80;;
8596;SDS011;4336;49.310;8.646;2024-03-23T13:53:25;6.53;;;5.77;;
8596;SDS011;4336;49.310;8.646;2024-03-23T13:55:52;7.53;;;6.77;;
8596;SDS011;4336;49.310;8.646;2024-03-23T13:58:18;8.53;;;7.83;;
8596;SDS011;4336;49.310;8.646;2024-03-23T14:00:45;8.83;;;8.00;;
8596;SDS011;4336;49.310;8.646;2024-03-23T14:03:11;7.17;;;6.57;;
8596;SDS011;4336;49.310;8.646;2024-03-23T14:05:38;9.03;;;8.10;;
8596;SDS011;4336;49.310;8.646;2024-03-23T14:08:07;9.23;;;8.43;;
8596;SDS011;4336;49.310;8.646;2024-03-23T14:10:34;7.93;;;7.13;;
8596;SDS011;4336;49.310;8.646;2024-03-23T14:13:03;9.50;;;7.67;;
8596;SDS011;4336;49.310;8.646;2024-03-23T14:15:29;9.23;;;7.53;;
8596;SDS011;4336;49.310;8.646;2024-03-23T14:17:56;9.30;;;6.93;;
8596;SDS011;4336;49.310;8.646;2024-03-23T14:20:22;9.43;;;7.60;;
8596;SDS011;4336;49.310;8.646;2024-03-23T14:22:49;9.27;;;8.37;;
8596;SDS011;4336;49.310;8.646;2024-03-23T14:25:15;7.53;;;6.83;;
8596;SDS011;4336;49.310;8.646;2024-03-23T14:27:43;8.57;;;6.97;;
8596;SDS011;4336;49.310;8.646;2024-03-23T14:30:09;7.87;;;7.13;;
8596;SDS011;4336;49.310;8.646;2024-03-23T14:32:35;8.23;;;7.37;;
8596;SDS011;4336;49.310;8.646;2024-03-23T14:35:02;8.43;;;7.57;;
8596;SDS011;4336;49.310;8.646;2024-03-23T14:37:29;10.13;;;9.07;;
8596;SDS011;4336;49.310;8.646;2024-03-23T14:39:55;7.93;;;7.23;;
8596;SDS011;4336;49.310;8.646;2024-03-23T14:42:22;8.17;;;7.37;;
8596;SDS011;4336;49.310;8.646;2024-03-23T14:44:52;8.43;;;7.67;;
8596;SDS011;4336;49.310;8.646;2024-03-23T14:47:18;14.40;;;7.63;;
8596;SDS011;4336;49.310;8.646;2024-03-23T14:49:46;7.27;;;6.60;;
8596;SDS011;4336;49.310;8.646;2024-03-23T14:52:15;8.57;;;7.80;;
8596;SDS011;4336;49.310;8.646;2024-03-23T14:54:41;9.83;;;7.47;;
8596;SDS011;4336;49.310;8.646;2024-03-23T14:57:08;9.03;;;7.80;;
8596;SDS011;4336;49.310;8.646;2024-03-23T14:59:35;9.40;;;8.37;;
8596;SDS011;4336;49.310;8.646;2024-03-23T15:02:03;11.33;;;8.67;;
8596;SDS011;4336;49.310;8.646;2024-03-23T15:04:29;11.27;;;7.73;;
8596;SDS011;4336;49.310;8.646;2024-03-23T15:06:56;12.97;;;9.70;;
8596;SDS011;4336;49.310;8.646;2024-03-23T15:09:22;9.17;;;8.27;;
8596;SDS011;4336;49.310;8.646;2024-03-23T15:11:48;10.10;;;8.17;;
8596;SDS011;4336;49.310;8.646;2024-03-23T15:14:14;11.97;;;10.03;;
8596;SDS011;4336;49.310;8.646;2024-03-23T15:16:40;6.00;;;5.33;;
8596;SDS011;4336;49.310;8.646;2024-03-23T15:19:09;10.33;;;8.47;;
8596;SDS011;4336;49.310;8.646;2024-03-23T15:21:35;8.87;;;7.97;;
8596;SDS011;4336;49.310;8.646;2024-03-23T15:24:01;8.13;;;6.37;;
8596;SDS011;4336;49.310;8.646;2024-03-23T15:26:27;7.70;;;6.20;;
8596;SDS011;4336;49.310;8.646;2024-03-23T15:28:53;9.77;;;8.23;;
8596;SDS011;4336;49.310;8.646;2024-03-23T15:31:22;9.80;;;8.90;;
8596;SDS011;4336;49.310;8.646;2024-03-23T15:33:48;8.93;;;8.03;;
8596;SDS011;4336;49.310;8.646;2024-03-23T15:36:15;10.53;;;9.33;;
8596;SDS011;4336;49.310;8.646;2024-03-23T15:38:41;9.33;;;8.43;;
8596;SDS011;4336;49.310;8.646;2024-03-23T15:41:08;9.50;;;7.77;;
8596;SDS011;4336;49.310;8.646;2024-03-23T15:43:35;10.33;;;9.40;;
8596;SDS011;4336;49.310;8.646;2024-03-23T15:46:01;8.03;;;7.30;;
8596;SDS011;4336;49.310;8.646;2024-03-23T15:48:28;8.67;;;7.77;;
8596;SDS011;4336;49.310;8.646;2024-03-23T15:50:55;8.67;;;7.63;;
8596;SDS011;4336;49.310;8.646;2024-03-23T15:53:22;9.73;;;7.80;;
8596;SDS011;4336;49.310;8.646;2024-03-23T15:55:55;16.70;;;7.07;;
8596;SDS011;4336;49.310;8.646;2024-03-23T15:58:21;14.27;;;10.60;;
8596;SDS011;4336;49.310;8.646;2024-03-23T16:00:57;11.47;;;10.33;;
8596;SDS011;4336;49.310;8.646;2024-03-23T16:03:24;9.50;;;8.63;;